sensor_id;sensor_type;location;lat;lon;timestamp;P1;durP1;ratioP1;P2;durP2;ratioP2
12437;SDS011;6283;51.330;12.374;2023-11-21T00:00:48;3.03;;;2.70;;
12437;SDS011;6283;51.330;12.374;2023-11-21T00:03:14;3.07;;;2.70;;
12437;SDS011;6283;51.330;12.374;2023-11-21T00:05:40;3.10;;;2.60;;
12437;SDS011;6283;51.330;12.374;2023-11-21T00:08:09;4.53;;;2.17;;
12437;SDS011;6283;51.330;12.374;2023-11-21T00:10:35;3.90;;;2.60;;
12437;SDS011;6283;51.330;12.374;2023-11-21T00:13:03;3.53;;;2.20;;
12437;SDS011;6283;51.330;12.374;2023-11-21T00:15:29;4.90;;;2.10;;
12437;SDS011;6283;51.330;12.374;2023-11-21T00:17:55;4.60;;;2.20;;
12437;SDS011;6283;51.330;12.374;2023-11-21T00:20:20;2.90;;;2.23;;
12437;SDS011;6283;51.330;12.374;2023-11-21T00:22:46;3.37;;;2.00;;
12437;SDS011;6283;51.330;12.374;2023-11-21T00:25:12;1.97;;;1.80;;
12437;SDS011;6283;51.330;12.374;2023-11-21T00:27:40;4.40;;;2.00;;
12437;SDS011;6283;51.330;12.374;2023-11-21T00:30:06;3.60;;;2.50;;
12437;SDS011;6283;51.330;12.374;2023-11-21T00:32:33;3.10;;;1.90;;
12437;SDS011;6283;51.330;12.374;2023-11-21T00:35:02;4.00;;;2.17;;
12437;SDS011;6283;51.330;12.374;2023-11-21T00:37:27;2.93;;;1.80;;
12437;SDS011;6283;51.330;12.374;2023-11-21T00:39:53;4.50;;;2.00;;
12437;SDS011;6283;51.330;12.374;2023-11-21T00:42:19;2.67;;;1.73;;
12437;SDS011;6283;51.330;12.374;2023-11-21T00:44:44;2.27;;;1.60;;
12437;SDS011;6283;51.330;12.374;2023-11-21T00:47:10;4.17;;;2.27;;
12437;SDS011;6283;51.330;12.374;2023-11-21T00:49:36;2.37;;;1.90;;
12437;SDS011;6283;51.330;12.374;2023-11-21T00:52:01;2.67;;;2.10;;
12437;SDS011;6283;51.330;12.374;2023-11-21T00:54:27;2.30;;;1.77;;
12437;SDS011;6283;51.330;12.374;2023-11-21T00:56:53;2.77;;;1.47;;
12437;SDS011;6283;51.330;12.374;2023-11-21T00:59:19;3.63;;;2.07;;
12437;SDS011;6283;51.330;12.374;2023-11-21T01:01:44;1.90;;;1.70;;
12437;SDS011;6283;51.330;12.374;2023-11-21T01:04:10;1.87;;;1.73;;
12437;SDS011;6283;51.330;12.374;2023-11-21T01:06:35;2.77;;;1.67;;
12437;SDS011;6283;51.330;12.374;2023-11-21T01:09:01;3.00;;;1.90;;
12437;SDS011;6283;51.330;12.374;2023-11-21T01:11:32;2.43;;;1.80;;
12437;SDS011;6283;51.330;12.374;2023-11-21T01:14:00;2.87;;;1.77;;
12437;SDS011;6283;51.330;12.374;2023-11-21T01:16:28;3.07;;;1.53;;
12437;SDS011;6283;51.330;12.374;2023-11-21T01:18:54;2.83;;;1.53;;
12437;SDS011;6283;51.330;12.374;2023-11-21T01:21:19;2.67;;;1.50;;
12437;SDS011;6283;51.330;12.374;2023-11-21T01:23:45;3.13;;;1.50;;
12437;SDS011;6283;51.330;12.374;2023-11-21T01:26:11;3.40;;;1.80;;
12437;SDS011;6283;51.330;12.374;2023-11-21T01:28:36;3.10;;;1.73;;
12437;SDS011;6283;51.330;12.374;2023-11-21T01:31:02;2.80;;;1.30;;
12437;SDS011;6283;51.330;12.374;2023-11-21T01:33:28;1.60;;;1.50;;
12437;SDS011;6283;51.330;12.374;2023-11-21T01:35:53;2.30;;;1.63;;
12437;SDS011;6283;51.330;12.374;2023-11-21T01:38:19;3.43;;;1.53;;
12437;SDS011;6283;51.330;12.374;2023-11-21T01:40:45;3.90;;;1.70;;
12437;SDS011;6283;51.330;12.374;2023-11-21T01:43:11;4.67;;;1.67;;
12437;SDS011;6283;51.330;12.374;2023-11-21T01:45:36;2.23;;;1.63;;
12437;SDS011;6283;51.330;12.374;2023-11-21T01:48:02;1.50;;;1.40;;
12437;SDS011;6283;51.330;12.374;2023-11-21T01:50:28;2.23;;;1.50;;
12437;SDS011;6283;51.330;12.374;2023-11-21T01:52:54;5.87;;;1.80;;
12437;SDS011;6283;51.330;12.374;2023-11-21T01:55:21;2.13;;;1.20;;
12437;SDS011;6283;51.330;12.374;2023-11-21T01:57:46;1.83;;;1.30;;
12437;SDS011;6283;51.330;12.374;2023-11-21T02:00:13;2.67;;;2.03;;
12437;SDS011;6283;51.330;12.374;2023-11-21T02:02:44;3.63;;;1.47;;
12437;SDS011;6283;51.330;12.374;2023-11-21T02:05:11;2.17;;;1.40;;
12437;SDS011;6283;51.330;12.374;2023-11-21T02:07:37;2.60;;;1.80;;
12437;SDS011;6283;51.330;12.374;2023-11-21T02:10:07;3.70;;;1.93;;
12437;SDS011;6283;51.330;12.374;2023-11-21T02:12:34;2.73;;;1.60;;
12437;SDS011;6283;51.330;12.374;2023-11-21T02:15:04;3.70;;;1.57;;
12437;SDS011;6283;51.330;12.374;2023-11-21T02:17:34;1.93;;;1.43;;
12437;SDS011;6283;51.330;12.374;2023-11-21T02:20:00;2.47;;;1.50;;
12437;SDS011;6283;51.330;12.374;2023-11-21T02:22:30;2.67;;;1.77;;
12437;SDS011;6283;51.330;12.374;2023-11-21T02:24:57;1.93;;;1.50;;
12437;SDS011;6283;51.330;12.374;2023-11-21T02:27:23;1.77;;;1.50;;
12437;SDS011;6283;51.330;12.374;2023-11-21T02:29:49;2.77;;;1.70;;
12437;SDS011;6283;51.330;12.374;2023-11-21T02:32:15;2.60;;;1.70;;
12437;SDS011;6283;51.330;12.374;2023-11-21T02:34:44;2.83;;;1.63;;
12437;SDS011;6283;51.330;12.374;2023-11-21T02:37:10;4.47;;;1.50;;
12437;SDS011;6283;51.330;12.374;2023-11-21T02:39:36;3.37;;;1.70;;
12437;SDS011;6283;51.330;12.374;2023-11-21T02:42:01;4.10;;;2.37;;
12437;SDS011;6283;51.330;12.374;2023-11-21T02:44:27;5.43;;;2.17;;
12437;SDS011;6283;51.330;12.374;2023-11-21T02:46:53;2.73;;;1.70;;
12437;SDS011;6283;51.330;12.374;2023-11-21T02:49:18;3.70;;;1.93;;
12437;SDS011;6283;51.330;12.374;2023-11-21T02:51:44;2.27;;;1.63;;
12437;SDS011;6283;51.330;12.374;2023-11-21T02:54:10;2.97;;;1.50;;
12437;SDS011;6283;51.330;12.374;2023-11-21T02:56:36;4.30;;;1.80;;
12437;SDS011;6283;51.330;12.374;2023-11-21T02:59:02;3.50;;;2.10;;
12437;SDS011;6283;51.330;12.374;2023-11-21T03:01:28;5.07;;;2.27;;
12437;SDS011;6283;51.330;12.374;2023-11-21T03:03:53;3.63;;;2.00;;
12437;SDS011;6283;51.330;12.374;2023-11-21T03:06:20;5.40;;;2.23;;
12437;SDS011;6283;51.330;12.374;2023-11-21T03:08:46;4.00;;;2.07;;
12437;SDS011;6283;51.330;12.374;2023-11-21T03:11:12;3.80;;;2.10;;
12437;SDS011;6283;51.330;12.374;2023-11-21T03:13:41;7.00;;;2.00;;
12437;SDS011;6283;51.330;12.374;2023-11-21T03:16:10;2.57;;;2.07;;
12437;SDS011;6283;51.330;12.374;2023-11-21T03:18:40;3.43;;;2.00;;
12437;SDS011;6283;51.330;12.374;2023-11-21T03:21:05;2.00;;;1.70;;
12437;SDS011;6283;51.330;12.374;2023-11-21T03:23:33;6.33;;;2.40;;
12437;SDS011;6283;51.330;12.374;2023-11-21T03:26:00;3.67;;;1.80;;
12437;SDS011;6283;51.330;12.374;2023-11-21T03:28:26;3.77;;;2.10;;
12437;SDS011;6283;51.330;12.374;2023-11-21T03:30:52;4.13;;;2.10;;
12437;SDS011;6283;51.330;12.374;2023-11-21T03:33:18;5.00;;;2.60;;
12437;SDS011;6283;51.330;12.374;2023-11-21T03:35:44;4.07;;;2.20;;
12437;SDS011;6283;51.330;12.374;2023-11-21T03:38:10;2.70;;;2.20;;
12437;SDS011;6283;51.330;12.374;2023-11-21T03:40:36;3.80;;;2.37;;
12437;SDS011;6283;51.330;12.374;2023-11-21T03:43:01;4.37;;;2.20;;
12437;SDS011;6283;51.330;12.374;2023-11-21T03:45:27;4.37;;;2.33;;
12437;SDS011;6283;51.330;12.374;2023-11-21T03:47:52;3.53;;;2.47;;
12437;SDS011;6283;51.330;12.374;2023-11-21T03:50:18;4.13;;;2.23;;
12437;SDS011;6283;51.330;12.374;2023-11-21T03:52:44;3.50;;;2.60;;
12437;SDS011;6283;51.330;12.374;2023-11-21T03:55:09;5.90;;;2.50;;
12437;SDS011;6283;51.330;12.374;2023-11-21T03:57:35;4.27;;;2.47;;
12437;SDS011;6283;51.330;12.374;2023-11-21T04:00:01;4.30;;;2.33;;
12437;SDS011;6283;51.330;12.374;2023-11-21T04:02:29;3.60;;;2.30;;
12437;SDS011;6283;51.330;12.374;2023-11-21T04:04:56;6.50;;;2.40;;
12437;SDS011;6283;51.330;12.374;2023-11-21T04:07:22;4.40;;;2.40;;
12437;SDS011;6283;51.330;12.374;2023-11-21T04:09:47;2.60;;;2.20;;
12437;SDS011;6283;51.330;12.374;2023-11-21T04:12:13;4.37;;;2.57;;
12437;SDS011;6283;51.330;12.374;2023-11-21T04:14:39;3.77;;;2.40;;
12437;SDS011;6283;51.330;12.374;2023-11-21T04:17:04;2.80;;;2.13;;
12437;SDS011;6283;51.330;12.374;2023-11-21T04:19:30;4.33;;;2.30;;
12437;SDS011;6283;51.330;12.374;2023-11-21T04:21:56;3.73;;;2.63;;
12437;SDS011;6283;51.330;12.374;2023-11-21T04:24:21;3.53;;;2.10;;
12437;SDS011;6283;51.330;12.374;2023-11-21T04:26:47;6.27;;;2.43;;
12437;SDS011;6283;51.330;12.374;2023-11-21T04:29:12;4.33;;;2.50;;
12437;SDS011;6283;51.330;12.374;2023-11-21T04:31:38;4.43;;;2.77;;
12437;SDS011;6283;51.330;12.374;2023-11-21T04:34:04;4.50;;;2.27;;
12437;SDS011;6283;51.330;12.374;2023-11-21T04:36:30;4.97;;;2.60;;
12437;SDS011;6283;51.330;12.374;2023-11-21T04:38:56;6.57;;;2.80;;
12437;SDS011;6283;51.330;12.374;2023-11-21T04:41:21;3.70;;;2.37;;
12437;SDS011;6283;51.330;12.374;2023-11-21T04:43:47;3.63;;;2.67;;
12437;SDS011;6283;51.330;12.374;2023-11-21T04:46:14;5.47;;;2.90;;
12437;SDS011;6283;51.330;12.374;2023-11-21T04:48:39;4.53;;;2.50;;
12437;SDS011;6283;51.330;12.374;2023-11-21T04:51:05;6.60;;;2.97;;
12437;SDS011;6283;51.330;12.374;2023-11-21T04:53:31;4.37;;;2.97;;
12437;SDS011;6283;51.330;12.374;2023-11-21T04:55:57;5.83;;;2.83;;
12437;SDS011;6283;51.330;12.374;2023-11-21T04:58:23;5.10;;;2.83;;
12437;SDS011;6283;51.330;12.374;2023-11-21T05:00:48;6.27;;;2.93;;
12437;SDS011;6283;51.330;12.374;2023-11-21T05:03:14;5.50;;;2.83;;
12437;SDS011;6283;51.330;12.374;2023-11-21T05:05:40;5.73;;;3.10;;
12437;SDS011;6283;51.330;12.374;2023-11-21T05:08:06;5.33;;;3.33;;
12437;SDS011;6283;51.330;12.374;2023-11-21T05:10:31;6.50;;;3.13;;
12437;SDS011;6283;51.330;12.374;2023-11-21T05:12:57;7.23;;;3.33;;
12437;SDS011;6283;51.330;12.374;2023-11-21T05:15:23;6.93;;;3.13;;
12437;SDS011;6283;51.330;12.374;2023-11-21T05:17:49;8.37;;;3.07;;
12437;SDS011;6283;51.330;12.374;2023-11-21T05:20:17;5.40;;;3.33;;
12437;SDS011;6283;51.330;12.374;2023-11-21T05:22:45;8.13;;;3.50;;
12437;SDS011;6283;51.330;12.374;2023-11-21T05:25:15;5.43;;;3.40;;
12437;SDS011;6283;51.330;12.374;2023-11-21T05:27:43;7.90;;;3.47;;
12437;SDS011;6283;51.330;12.374;2023-11-21T05:30:09;5.87;;;3.30;;
12437;SDS011;6283;51.330;12.374;2023-11-21T05:32:37;8.00;;;3.20;;
12437;SDS011;6283;51.330;12.374;2023-11-21T05:35:03;6.70;;;3.60;;
12437;SDS011;6283;51.330;12.374;2023-11-21T05:37:34;4.93;;;3.43;;
12437;SDS011;6283;51.330;12.374;2023-11-21T05:40:00;5.87;;;2.93;;
12437;SDS011;6283;51.330;12.374;2023-11-21T05:42:31;5.37;;;3.43;;
12437;SDS011;6283;51.330;12.374;2023-11-21T05:44:57;4.10;;;3.43;;
12437;SDS011;6283;51.330;12.374;2023-11-21T05:47:24;6.47;;;3.90;;
12437;SDS011;6283;51.330;12.374;2023-11-21T05:49:51;5.60;;;3.17;;
12437;SDS011;6283;51.330;12.374;2023-11-21T05:52:17;5.73;;;3.80;;
12437;SDS011;6283;51.330;12.374;2023-11-21T05:54:43;4.37;;;3.30;;
12437;SDS011;6283;51.330;12.374;2023-11-21T05:57:09;5.20;;;3.70;;
12437;SDS011;6283;51.330;12.374;2023-11-21T05:59:34;6.33;;;3.67;;
12437;SDS011;6283;51.330;12.374;2023-11-21T06:02:00;5.87;;;3.73;;
12437;SDS011;6283;51.330;12.374;2023-11-21T06:04:27;11.10;;;3.90;;
12437;SDS011;6283;51.330;12.374;2023-11-21T06:06:52;7.73;;;4.03;;
12437;SDS011;6283;51.330;12.374;2023-11-21T06:09:18;6.67;;;3.93;;
12437;SDS011;6283;51.330;12.374;2023-11-21T06:11:44;5.83;;;3.87;;
12437;SDS011;6283;51.330;12.374;2023-11-21T06:14:10;11.73;;;4.10;;
12437;SDS011;6283;51.330;12.374;2023-11-21T06:16:36;10.53;;;4.33;;
12437;SDS011;6283;51.330;12.374;2023-11-21T06:19:01;7.47;;;3.90;;
12437;SDS011;6283;51.330;12.374;2023-11-21T06:21:27;6.90;;;4.27;;
12437;SDS011;6283;51.330;12.374;2023-11-21T06:23:52;9.33;;;4.77;;
12437;SDS011;6283;51.330;12.374;2023-11-21T06:26:18;7.50;;;4.07;;
12437;SDS011;6283;51.330;12.374;2023-11-21T06:28:44;8.03;;;5.47;;
12437;SDS011;6283;51.330;12.374;2023-11-21T06:31:10;7.40;;;4.33;;
12437;SDS011;6283;51.330;12.374;2023-11-21T06:33:35;8.73;;;4.43;;
12437;SDS011;6283;51.330;12.374;2023-11-21T06:36:01;14.80;;;4.93;;
12437;SDS011;6283;51.330;12.374;2023-11-21T06:38:31;9.13;;;4.80;;
12437;SDS011;6283;51.330;12.374;2023-11-21T06:40:57;10.80;;;5.20;;
12437;SDS011;6283;51.330;12.374;2023-11-21T06:43:23;10.10;;;5.17;;
12437;SDS011;6283;51.330;12.374;2023-11-21T06:45:49;10.33;;;5.20;;
12437;SDS011;6283;51.330;12.374;2023-11-21T06:48:14;14.20;;;4.87;;
12437;SDS011;6283;51.330;12.374;2023-11-21T06:50:40;13.80;;;6.13;;
12437;SDS011;6283;51.330;12.374;2023-11-21T06:53:06;9.93;;;5.30;;
12437;SDS011;6283;51.330;12.374;2023-11-21T06:55:33;11.60;;;5.40;;
12437;SDS011;6283;51.330;12.374;2023-11-21T06:57:59;11.33;;;5.77;;
12437;SDS011;6283;51.330;12.374;2023-11-21T07:00:25;13.67;;;6.17;;
12437;SDS011;6283;51.330;12.374;2023-11-21T07:02:53;14.50;;;6.40;;
12437;SDS011;6283;51.330;12.374;2023-11-21T07:05:20;13.03;;;5.70;;
12437;SDS011;6283;51.330;12.374;2023-11-21T07:07:47;8.53;;;5.23;;
12437;SDS011;6283;51.330;12.374;2023-11-21T07:10:13;10.40;;;5.97;;
12437;SDS011;6283;51.330;12.374;2023-11-21T07:12:39;11.47;;;6.20;;
12437;SDS011;6283;51.330;12.374;2023-11-21T07:15:05;9.40;;;5.37;;
12437;SDS011;6283;51.330;12.374;2023-11-21T07:17:34;11.73;;;5.80;;
12437;SDS011;6283;51.330;12.374;2023-11-21T07:20:00;11.40;;;6.03;;
12437;SDS011;6283;51.330;12.374;2023-11-21T07:22:27;9.53;;;6.53;;
12437;SDS011;6283;51.330;12.374;2023-11-21T07:24:52;10.93;;;5.30;;
12437;SDS011;6283;51.330;12.374;2023-11-21T07:27:18;8.67;;;5.27;;
12437;SDS011;6283;51.330;12.374;2023-11-21T07:29:44;9.73;;;5.20;;
12437;SDS011;6283;51.330;12.374;2023-11-21T07:32:09;10.97;;;5.87;;
12437;SDS011;6283;51.330;12.374;2023-11-21T07:34:36;11.23;;;6.33;;
12437;SDS011;6283;51.330;12.374;2023-11-21T07:37:02;11.70;;;6.63;;
12437;SDS011;6283;51.330;12.374;2023-11-21T07:39:28;14.30;;;7.30;;
12437;SDS011;6283;51.330;12.374;2023-11-21T07:41:53;13.80;;;8.40;;
12437;SDS011;6283;51.330;12.374;2023-11-21T07:44:20;18.87;;;9.63;;
12437;SDS011;6283;51.330;12.374;2023-11-21T07:46:45;18.53;;;8.83;;
12437;SDS011;6283;51.330;12.374;2023-11-21T07:49:12;17.70;;;9.20;;
12437;SDS011;6283;51.330;12.374;2023-11-21T07:51:41;22.37;;;9.90;;
12437;SDS011;6283;51.330;12.374;2023-11-21T07:54:07;17.07;;;9.80;;
12437;SDS011;6283;51.330;12.374;2023-11-21T07:56:32;16.90;;;9.20;;
12437;SDS011;6283;51.330;12.374;2023-11-21T07:58:58;22.07;;;10.73;;
12437;SDS011;6283;51.330;12.374;2023-11-21T08:01:24;20.77;;;9.77;;
12437;SDS011;6283;51.330;12.374;2023-11-21T08:03:50;18.13;;;9.47;;
12437;SDS011;6283;51.330;12.374;2023-11-21T08:06:17;15.13;;;9.03;;
12437;SDS011;6283;51.330;12.374;2023-11-21T08:08:43;14.37;;;8.23;;
12437;SDS011;6283;51.330;12.374;2023-11-21T08:11:08;10.93;;;7.60;;
12437;SDS011;6283;51.330;12.374;2023-11-21T08:13:35;15.93;;;7.87;;
12437;SDS011;6283;51.330;12.374;2023-11-21T08:16:00;12.83;;;6.93;;
12437;SDS011;6283;51.330;12.374;2023-11-21T08:18:30;10.97;;;6.33;;
12437;SDS011;6283;51.330;12.374;2023-11-21T08:20:56;10.60;;;6.40;;
12437;SDS011;6283;51.330;12.374;2023-11-21T08:23:22;8.13;;;5.63;;
12437;SDS011;6283;51.330;12.374;2023-11-21T08:25:50;8.07;;;5.27;;
12437;SDS011;6283;51.330;12.374;2023-11-21T08:28:16;9.97;;;5.37;;
12437;SDS011;6283;51.330;12.374;2023-11-21T08:30:42;8.10;;;5.70;;
12437;SDS011;6283;51.330;12.374;2023-11-21T08:33:08;10.47;;;5.23;;
12437;SDS011;6283;51.330;12.374;2023-11-21T08:35:34;7.17;;;5.63;;
12437;SDS011;6283;51.330;12.374;2023-11-21T08:38:01;9.10;;;5.40;;
12437;SDS011;6283;51.330;12.374;2023-11-21T08:40:27;8.73;;;5.40;;
12437;SDS011;6283;51.330;12.374;2023-11-21T08:42:52;8.67;;;5.80;;
12437;SDS011;6283;51.330;12.374;2023-11-21T08:45:18;10.47;;;5.33;;
12437;SDS011;6283;51.330;12.374;2023-11-21T08:47:44;7.83;;;5.20;;
12437;SDS011;6283;51.330;12.374;2023-11-21T08:50:10;8.07;;;5.90;;
12437;SDS011;6283;51.330;12.374;2023-11-21T08:52:37;7.77;;;5.37;;
12437;SDS011;6283;51.330;12.374;2023-11-21T08:55:04;7.90;;;5.27;;
12437;SDS011;6283;51.330;12.374;2023-11-21T08:57:35;6.23;;;5.00;;
12437;SDS011;6283;51.330;12.374;2023-11-21T09:00:02;6.00;;;4.67;;
12437;SDS011;6283;51.330;12.374;2023-11-21T09:02:32;7.17;;;4.30;;
12437;SDS011;6283;51.330;12.374;2023-11-21T09:04:59;6.33;;;4.70;;
12437;SDS011;6283;51.330;12.374;2023-11-21T09:07:28;7.20;;;4.60;;
12437;SDS011;6283;51.330;12.374;2023-11-21T09:09:54;6.93;;;5.10;;
12437;SDS011;6283;51.330;12.374;2023-11-21T09:12:20;6.50;;;4.47;;
12437;SDS011;6283;51.330;12.374;2023-11-21T09:14:45;8.37;;;4.87;;
12437;SDS011;6283;51.330;12.374;2023-11-21T09:17:11;6.80;;;4.40;;
12437;SDS011;6283;51.330;12.374;2023-11-21T09:19:37;7.17;;;4.83;;
12437;SDS011;6283;51.330;12.374;2023-11-21T09:22:03;6.60;;;4.70;;
12437;SDS011;6283;51.330;12.374;2023-11-21T09:24:30;6.13;;;4.23;;
12437;SDS011;6283;51.330;12.374;2023-11-21T09:26:56;6.37;;;4.67;;
12437;SDS011;6283;51.330;12.374;2023-11-21T09:29:22;6.63;;;5.03;;
12437;SDS011;6283;51.330;12.374;2023-11-21T09:31:47;6.97;;;4.77;;
12437;SDS011;6283;51.330;12.374;2023-11-21T09:34:14;7.20;;;4.43;;
12437;SDS011;6283;51.330;12.374;2023-11-21T09:36:40;7.53;;;5.30;;
12437;SDS011;6283;51.330;12.374;2023-11-21T09:39:06;6.37;;;4.30;;
12437;SDS011;6283;51.330;12.374;2023-11-21T09:41:37;7.87;;;4.90;;
12437;SDS011;6283;51.330;12.374;2023-11-21T09:44:11;8.60;;;5.33;;
12437;SDS011;6283;51.330;12.374;2023-11-21T09:46:40;11.90;;;6.70;;
12437;SDS011;6283;51.330;12.374;2023-11-21T09:49:08;6.80;;;4.83;;
12437;SDS011;6283;51.330;12.374;2023-11-21T09:51:42;7.20;;;4.50;;
12437;SDS011;6283;51.330;12.374;2023-11-21T09:54:09;6.53;;;4.63;;
12437;SDS011;6283;51.330;12.374;2023-11-21T09:56:37;8.80;;;5.37;;
12437;SDS011;6283;51.330;12.374;2023-11-21T09:59:03;6.37;;;4.57;;
12437;SDS011;6283;51.330;12.374;2023-11-21T10:01:32;5.67;;;4.20;;
12437;SDS011;6283;51.330;12.374;2023-11-21T10:04:00;7.10;;;4.80;;
12437;SDS011;6283;51.330;12.374;2023-11-21T10:06:26;6.20;;;4.37;;
12437;SDS011;6283;51.330;12.374;2023-11-21T10:08:54;4.97;;;4.17;;
12437;SDS011;6283;51.330;12.374;2023-11-21T10:11:22;7.30;;;4.53;;
12437;SDS011;6283;51.330;12.374;2023-11-21T10:13:50;6.43;;;4.13;;
12437;SDS011;6283;51.330;12.374;2023-11-21T10:16:22;6.97;;;4.80;;
12437;SDS011;6283;51.330;12.374;2023-11-21T10:18:51;7.10;;;4.77;;
12437;SDS011;6283;51.330;12.374;2023-11-21T10:21:20;6.33;;;4.10;;
12437;SDS011;6283;51.330;12.374;2023-11-21T10:23:46;4.90;;;3.63;;
12437;SDS011;6283;51.330;12.374;2023-11-21T10:26:12;4.60;;;3.50;;
12437;SDS011;6283;51.330;12.374;2023-11-21T10:29:00;7.43;;;3.70;;
12437;SDS011;6283;51.330;12.374;2023-11-21T10:31:30;5.20;;;3.77;;
12437;SDS011;6283;51.330;12.374;2023-11-21T10:36:38;4.27;;;3.20;;
12437;SDS011;6283;51.330;12.374;2023-11-21T10:39:03;6.30;;;3.07;;
12437;SDS011;6283;51.330;12.374;2023-11-21T10:41:29;5.20;;;3.70;;
12437;SDS011;6283;51.330;12.374;2023-11-21T10:43:55;5.03;;;3.53;;
12437;SDS011;6283;51.330;12.374;2023-11-21T10:46:21;5.40;;;3.33;;
12437;SDS011;6283;51.330;12.374;2023-11-21T10:48:52;5.50;;;3.60;;
12437;SDS011;6283;51.330;12.374;2023-11-21T10:51:20;5.23;;;3.57;;
12437;SDS011;6283;51.330;12.374;2023-11-21T10:53:46;4.00;;;3.10;;
12437;SDS011;6283;51.330;12.374;2023-11-21T10:56:12;5.57;;;3.33;;
12437;SDS011;6283;51.330;12.374;2023-11-21T10:58:44;4.40;;;3.37;;
12437;SDS011;6283;51.330;12.374;2023-11-21T11:01:10;6.53;;;3.73;;
12437;SDS011;6283;51.330;12.374;2023-11-21T11:03:39;4.77;;;3.50;;
12437;SDS011;6283;51.330;12.374;2023-11-21T11:06:06;5.57;;;3.40;;
12437;SDS011;6283;51.330;12.374;2023-11-21T11:08:39;5.77;;;3.60;;
12437;SDS011;6283;51.330;12.374;2023-11-21T11:11:05;6.33;;;3.70;;
12437;SDS011;6283;51.330;12.374;2023-11-21T11:13:32;5.47;;;4.00;;
12437;SDS011;6283;51.330;12.374;2023-11-21T11:15:58;7.83;;;4.97;;
12437;SDS011;6283;51.330;12.374;2023-11-21T11:18:29;8.20;;;4.77;;
12437;SDS011;6283;51.330;12.374;2023-11-21T11:20:57;6.97;;;4.40;;
12437;SDS011;6283;51.330;12.374;2023-11-21T11:23:46;8.70;;;4.47;;
12437;SDS011;6283;51.330;12.374;2023-11-21T11:26:36;7.57;;;4.40;;
12437;SDS011;6283;51.330;12.374;2023-11-21T11:37:00;7.83;;;4.70;;
12437;SDS011;6283;51.330;12.374;2023-11-21T11:39:29;7.10;;;4.57;;
12437;SDS011;6283;51.330;12.374;2023-11-21T11:42:02;7.27;;;4.77;;
12437;SDS011;6283;51.330;12.374;2023-11-21T11:47:29;8.17;;;5.20;;
12437;SDS011;6283;51.330;12.374;2023-11-21T11:50:06;7.17;;;4.90;;
12437;SDS011;6283;51.330;12.374;2023-11-21T11:55:14;12.03;;;6.97;;
12437;SDS011;6283;51.330;12.374;2023-11-21T11:57:47;14.50;;;7.60;;
12437;SDS011;6283;51.330;12.374;2023-11-21T12:02:51;12.63;;;7.07;;
12437;SDS011;6283;51.330;12.374;2023-11-21T12:05:18;13.13;;;6.50;;
12437;SDS011;6283;51.330;12.374;2023-11-21T12:07:51;10.43;;;7.13;;
12437;SDS011;6283;51.330;12.374;2023-11-21T12:10:19;12.37;;;6.33;;
12437;SDS011;6283;51.330;12.374;2023-11-21T12:12:53;12.07;;;6.10;;
12437;SDS011;6283;51.330;12.374;2023-11-21T12:15:23;8.10;;;5.27;;
12437;SDS011;6283;51.330;12.374;2023-11-21T12:17:50;7.87;;;5.03;;
12437;SDS011;6283;51.330;12.374;2023-11-21T12:20:20;7.90;;;4.77;;
12437;SDS011;6283;51.330;12.374;2023-11-21T12:22:47;7.60;;;4.60;;
12437;SDS011;6283;51.330;12.374;2023-11-21T12:27:47;6.07;;;3.80;;
12437;SDS011;6283;51.330;12.374;2023-11-21T12:30:15;7.63;;;3.67;;
12437;SDS011;6283;51.330;12.374;2023-11-21T12:32:42;7.90;;;4.53;;
12437;SDS011;6283;51.330;12.374;2023-11-21T12:35:11;7.23;;;4.63;;
12437;SDS011;6283;51.330;12.374;2023-11-21T12:37:38;5.47;;;3.87;;
12437;SDS011;6283;51.330;12.374;2023-11-21T12:40:05;6.13;;;3.73;;
12437;SDS011;6283;51.330;12.374;2023-11-21T12:42:32;7.33;;;3.50;;
12437;SDS011;6283;51.330;12.374;2023-11-21T12:47:53;5.80;;;4.13;;
12437;SDS011;6283;51.330;12.374;2023-11-21T12:50:22;5.43;;;3.87;;
12437;SDS011;6283;51.330;12.374;2023-11-21T12:52:52;7.20;;;4.70;;
12437;SDS011;6283;51.330;12.374;2023-11-21T12:55:19;9.67;;;5.67;;
12437;SDS011;6283;51.330;12.374;2023-11-21T12:57:50;7.30;;;5.20;;
12437;SDS011;6283;51.330;12.374;2023-11-21T13:00:20;11.07;;;5.73;;
12437;SDS011;6283;51.330;12.374;2023-11-21T13:03:07;11.17;;;5.30;;
12437;SDS011;6283;51.330;12.374;2023-11-21T13:08:04;10.10;;;6.33;;
12437;SDS011;6283;51.330;12.374;2023-11-21T13:10:33;11.93;;;6.40;;
12437;SDS011;6283;51.330;12.374;2023-11-21T13:13:01;8.97;;;6.13;;
12437;SDS011;6283;51.330;12.374;2023-11-21T13:15:30;9.60;;;6.43;;
12437;SDS011;6283;51.330;12.374;2023-11-21T13:17:58;12.70;;;6.30;;
12437;SDS011;6283;51.330;12.374;2023-11-21T13:20:24;8.73;;;6.17;;
12437;SDS011;6283;51.330;12.374;2023-11-21T13:22:54;9.53;;;5.77;;
12437;SDS011;6283;51.330;12.374;2023-11-21T13:25:24;8.87;;;5.90;;
12437;SDS011;6283;51.330;12.374;2023-11-21T13:27:54;9.70;;;5.67;;
12437;SDS011;6283;51.330;12.374;2023-11-21T13:30:20;7.67;;;5.60;;
12437;SDS011;6283;51.330;12.374;2023-11-21T13:32:54;9.27;;;5.57;;
12437;SDS011;6283;51.330;12.374;2023-11-21T13:35:27;6.67;;;5.27;;
12437;SDS011;6283;51.330;12.374;2023-11-21T13:37:57;9.67;;;5.53;;
12437;SDS011;6283;51.330;12.374;2023-11-21T13:40:30;10.07;;;5.57;;
12437;SDS011;6283;51.330;12.374;2023-11-21T13:42:56;9.67;;;5.73;;
12437;SDS011;6283;51.330;12.374;2023-11-21T13:45:25;9.07;;;5.73;;
12437;SDS011;6283;51.330;12.374;2023-11-21T13:47:52;6.57;;;4.40;;
12437;SDS011;6283;51.330;12.374;2023-11-21T13:50:22;8.27;;;5.20;;
12437;SDS011;6283;51.330;12.374;2023-11-21T13:52:52;8.17;;;5.00;;
12437;SDS011;6283;51.330;12.374;2023-11-21T13:55:18;7.30;;;4.53;;
12437;SDS011;6283;51.330;12.374;2023-11-21T13:57:44;7.23;;;4.80;;
12437;SDS011;6283;51.330;12.374;2023-11-21T14:00:15;9.47;;;5.13;;
12437;SDS011;6283;51.330;12.374;2023-11-21T14:03:00;7.13;;;4.97;;
12437;SDS011;6283;51.330;12.374;2023-11-21T14:05:29;7.40;;;4.93;;
12437;SDS011;6283;51.330;12.374;2023-11-21T14:07:56;7.40;;;4.73;;
12437;SDS011;6283;51.330;12.374;2023-11-21T14:10:28;6.70;;;4.40;;
12437;SDS011;6283;51.330;12.374;2023-11-21T14:13:04;6.77;;;4.53;;
12437;SDS011;6283;51.330;12.374;2023-11-21T14:15:31;8.57;;;4.80;;
12437;SDS011;6283;51.330;12.374;2023-11-21T14:17:58;6.47;;;4.33;;
12437;SDS011;6283;51.330;12.374;2023-11-21T14:20:27;5.33;;;4.13;;
12437;SDS011;6283;51.330;12.374;2023-11-21T14:22:54;6.80;;;3.80;;
12437;SDS011;6283;51.330;12.374;2023-11-21T14:25:19;6.37;;;4.00;;
12437;SDS011;6283;51.330;12.374;2023-11-21T14:27:47;6.40;;;4.13;;
12437;SDS011;6283;51.330;12.374;2023-11-21T14:30:13;5.23;;;3.70;;
12437;SDS011;6283;51.330;12.374;2023-11-21T14:32:40;4.50;;;3.50;;
12437;SDS011;6283;51.330;12.374;2023-11-21T14:35:06;6.77;;;3.77;;
12437;SDS011;6283;51.330;12.374;2023-11-21T14:37:34;4.67;;;3.20;;
12437;SDS011;6283;51.330;12.374;2023-11-21T14:40:00;3.67;;;2.87;;
12437;SDS011;6283;51.330;12.374;2023-11-21T14:42:26;4.00;;;2.90;;
12437;SDS011;6283;51.330;12.374;2023-11-21T14:44:54;4.40;;;2.90;;
12437;SDS011;6283;51.330;12.374;2023-11-21T14:47:25;4.97;;;2.93;;
12437;SDS011;6283;51.330;12.374;2023-11-21T14:49:52;5.10;;;3.27;;
12437;SDS011;6283;51.330;12.374;2023-11-21T14:52:18;3.97;;;3.03;;
12437;SDS011;6283;51.330;12.374;2023-11-21T14:54:53;4.80;;;2.97;;
12437;SDS011;6283;51.330;12.374;2023-11-21T14:57:39;4.57;;;3.10;;
12437;SDS011;6283;51.330;12.374;2023-11-21T15:00:04;3.27;;;2.70;;
12437;SDS011;6283;51.330;12.374;2023-11-21T15:02:34;3.63;;;2.70;;
12437;SDS011;6283;51.330;12.374;2023-11-21T15:05:15;4.40;;;3.17;;
12437;SDS011;6283;51.330;12.374;2023-11-21T15:07:41;4.13;;;2.73;;
12437;SDS011;6283;51.330;12.374;2023-11-21T15:10:07;4.03;;;2.80;;
12437;SDS011;6283;51.330;12.374;2023-11-21T15:12:39;4.03;;;2.70;;